sensor_id;sensor_type;location;lat;lon;timestamp;P1;durP1;ratioP1;P2;durP2;ratioP2
62997;SDS011;55949;52.590;7.330;2022-09-09T00:00:26;4.00;;;1.90;;
62997;SDS011;55949;52.590;7.330;2022-09-09T00:04:31;3.70;;;1.70;;
62997;SDS011;55949;52.590;7.330;2022-09-09T00:05:50;6.30;;;2.05;;
62997;SDS011;55949;52.590;7.330;2022-09-09T00:08:16;5.72;;;1.88;;
62997;SDS011;55949;52.590;7.330;2022-09-09T00:09:26;5.30;;;1.70;;
62997;SDS011;55949;52.590;7.330;2022-09-09T00:10:30;5.07;;;2.13;;
62997;SDS011;55949;52.590;7.330;2022-09-09T00:11:36;5.03;;;1.95;;
62997;SDS011;55949;52.590;7.330;2022-09-09T00:12:57;4.43;;;2.20;;
62997;SDS011;55949;52.590;7.330;2022-09-09T00:14:23;4.00;;;2.17;;
62997;SDS011;55949;52.590;7.330;2022-09-09T00:15:40;6.28;;;2.08;;
62997;SDS011;55949;52.590;7.330;2022-09-09T00:16:52;3.97;;;2.03;;
62997;SDS011;55949;52.590;7.330;2022-09-09T00:18:21;6.10;;;2.30;;
62997;SDS011;55949;52.590;7.330;2022-09-09T00:19:41;7.20;;;2.03;;
62997;SDS011;55949;52.590;7.330;2022-09-09T00:21:06;7.18;;;2.20;;
62997;SDS011;55949;52.590;7.330;2022-09-09T00:22:19;7.00;;;2.30;;
62997;SDS011;55949;52.590;7.330;2022-09-09T00:26:02;5.82;;;2.13;;
62997;SDS011;55949;52.590;7.330;2022-09-09T00:28:46;4.60;;;1.83;;
62997;SDS011;55949;52.590;7.330;2022-09-09T00:31:16;4.88;;;2.10;;
62997;SDS011;55949;52.590;7.330;2022-09-09T00:32:28;5.45;;;2.22;;
62997;SDS011;55949;52.590;7.330;2022-09-09T00:33:30;8.32;;;2.40;;
62997;SDS011;55949;52.590;7.330;2022-09-09T00:34:31;5.75;;;2.50;;
62997;SDS011;55949;52.590;7.330;2022-09-09T00:35:37;9.02;;;2.15;;
62997;SDS011;55949;52.590;7.330;2022-09-09T00:36:41;6.50;;;2.10;;
62997;SDS011;55949;52.590;7.330;2022-09-09T00:37:44;4.53;;;2.15;;
62997;SDS011;55949;52.590;7.330;2022-09-09T00:38:49;7.80;;;2.13;;
62997;SDS011;55949;52.590;7.330;2022-09-09T00:39:54;3.53;;;2.15;;
62997;SDS011;55949;52.590;7.330;2022-09-09T00:41:11;5.80;;;1.90;;
62997;SDS011;55949;52.590;7.330;2022-09-09T00:42:23;5.60;;;2.17;;
62997;SDS011;55949;52.590;7.330;2022-09-09T00:43:36;5.90;;;2.30;;
62997;SDS011;55949;52.590;7.330;2022-09-09T00:44:37;4.32;;;2.17;;
62997;SDS011;55949;52.590;7.330;2022-09-09T00:48:35;6.00;;;2.13;;
62997;SDS011;55949;52.590;7.330;2022-09-09T00:50:03;7.63;;;2.20;;
62997;SDS011;55949;52.590;7.330;2022-09-09T00:51:17;6.13;;;2.53;;
62997;SDS011;55949;52.590;7.330;2022-09-09T00:54:15;4.15;;;2.17;;
62997;SDS011;55949;52.590;7.330;2022-09-09T00:56:26;4.90;;;2.33;;
62997;SDS011;55949;52.590;7.330;2022-09-09T00:57:35;6.65;;;2.65;;
62997;SDS011;55949;52.590;7.330;2022-09-09T00:58:36;4.05;;;2.25;;
62997;SDS011;55949;52.590;7.330;2022-09-09T01:01:15;7.65;;;2.55;;
62997;SDS011;55949;52.590;7.330;2022-09-09T01:03:49;6.57;;;2.20;;
62997;SDS011;55949;52.590;7.330;2022-09-09T01:04:53;4.85;;;2.28;;
62997;SDS011;55949;52.590;7.330;2022-09-09T01:07:22;2.60;;;2.25;;
62997;SDS011;55949;52.590;7.330;2022-09-09T01:10:03;4.30;;;1.75;;
62997;SDS011;55949;52.590;7.330;2022-09-09T01:11:20;4.38;;;2.08;;
62997;SDS011;55949;52.590;7.330;2022-09-09T01:12:41;4.45;;;1.65;;
62997;SDS011;55949;52.590;7.330;2022-09-09T01:13:43;3.72;;;1.75;;
62997;SDS011;55949;52.590;7.330;2022-09-09T01:14:48;6.75;;;1.85;;
62997;SDS011;55949;52.590;7.330;2022-09-09T01:15:52;4.80;;;1.75;;
62997;SDS011;55949;52.590;7.330;2022-09-09T01:16:54;4.40;;;1.92;;
62997;SDS011;55949;52.590;7.330;2022-09-09T01:18:04;3.60;;;1.73;;
62997;SDS011;55949;52.590;7.330;2022-09-09T01:19:10;5.57;;;2.03;;
62997;SDS011;55949;52.590;7.330;2022-09-09T01:22:01;2.67;;;1.40;;
62997;SDS011;55949;52.590;7.330;2022-09-09T01:25:01;4.38;;;1.92;;
62997;SDS011;55949;52.590;7.330;2022-09-09T01:27:32;3.78;;;1.50;;
62997;SDS011;55949;52.590;7.330;2022-09-09T01:28:34;4.07;;;1.40;;
62997;SDS011;55949;52.590;7.330;2022-09-09T01:29:37;3.85;;;1.50;;
62997;SDS011;55949;52.590;7.330;2022-09-09T01:30:38;6.97;;;1.52;;
62997;SDS011;55949;52.590;7.330;2022-09-09T01:31:42;4.18;;;1.70;;
62997;SDS011;55949;52.590;7.330;2022-09-09T01:33:02;5.07;;;1.30;;
62997;SDS011;55949;52.590;7.330;2022-09-09T01:34:13;6.25;;;1.70;;
62997;SDS011;55949;52.590;7.330;2022-09-09T01:36:35;2.53;;;1.05;;
62997;SDS011;55949;52.590;7.330;2022-09-09T01:37:44;3.53;;;1.30;;
62997;SDS011;55949;52.590;7.330;2022-09-09T01:38:45;3.53;;;1.48;;
62997;SDS011;55949;52.590;7.330;2022-09-09T01:39:46;3.33;;;1.15;;
62997;SDS011;55949;52.590;7.330;2022-09-09T01:40:47;3.03;;;1.30;;
62997;SDS011;55949;52.590;7.330;2022-09-09T01:41:49;4.13;;;1.50;;
62997;SDS011;55949;52.590;7.330;2022-09-09T01:42:50;2.00;;;1.30;;
62997;SDS011;55949;52.590;7.330;2022-09-09T01:43:52;4.95;;;1.23;;
62997;SDS011;55949;52.590;7.330;2022-09-09T01:44:54;2.72;;;1.40;;
62997;SDS011;55949;52.590;7.330;2022-09-09T01:45:56;3.20;;;1.45;;
62997;SDS011;55949;52.590;7.330;2022-09-09T01:47:00;5.88;;;1.70;;
62997;SDS011;55949;52.590;7.330;2022-09-09T01:48:00;4.65;;;1.33;;
62997;SDS011;55949;52.590;7.330;2022-09-09T01:49:03;3.10;;;1.30;;
62997;SDS011;55949;52.590;7.330;2022-09-09T01:50:07;3.05;;;1.15;;
62997;SDS011;55949;52.590;7.330;2022-09-09T01:51:11;3.55;;;1.10;;
62997;SDS011;55949;52.590;7.330;2022-09-09T01:52:12;4.65;;;1.50;;
62997;SDS011;55949;52.590;7.330;2022-09-09T01:53:12;4.47;;;1.83;;
62997;SDS011;55949;52.590;7.330;2022-09-09T01:54:15;2.92;;;1.55;;
62997;SDS011;55949;52.590;7.330;2022-09-09T01:55:16;5.22;;;1.75;;
62997;SDS011;55949;52.590;7.330;2022-09-09T01:57:39;2.53;;;1.40;;
62997;SDS011;55949;52.590;7.330;2022-09-09T02:01:15;3.63;;;1.33;;
62997;SDS011;55949;52.590;7.330;2022-09-09T02:02:19;2.28;;;1.40;;
62997;SDS011;55949;52.590;7.330;2022-09-09T02:03:40;3.75;;;1.67;;
62997;SDS011;55949;52.590;7.330;2022-09-09T02:04:50;5.43;;;1.75;;
62997;SDS011;55949;52.590;7.330;2022-09-09T02:08:42;3.00;;;1.20;;
62997;SDS011;55949;52.590;7.330;2022-09-09T02:09:49;4.38;;;1.42;;
62997;SDS011;55949;52.590;7.330;2022-09-09T02:12:14;4.22;;;1.88;;
62997;SDS011;55949;52.590;7.330;2022-09-09T02:13:18;2.72;;;1.40;;
62997;SDS011;55949;52.590;7.330;2022-09-09T02:14:22;2.15;;;1.27;;
62997;SDS011;55949;52.590;7.330;2022-09-09T02:15:35;2.42;;;1.33;;
62997;SDS011;55949;52.590;7.330;2022-09-09T02:16:46;3.40;;;1.40;;
62997;SDS011;55949;52.590;7.330;2022-09-09T02:17:50;5.68;;;1.88;;
62997;SDS011;55949;52.590;7.330;2022-09-09T02:20:14;3.50;;;1.73;;
62997;SDS011;55949;52.590;7.330;2022-09-09T02:21:18;3.08;;;1.40;;
62997;SDS011;55949;52.590;7.330;2022-09-09T02:22:19;3.88;;;1.30;;
62997;SDS011;55949;52.590;7.330;2022-09-09T02:23:24;4.13;;;1.20;;
62997;SDS011;55949;52.590;7.330;2022-09-09T02:24:25;3.75;;;1.50;;
62997;SDS011;55949;52.590;7.330;2022-09-09T02:25:29;3.97;;;1.38;;
62997;SDS011;55949;52.590;7.330;2022-09-09T02:26:30;4.18;;;1.25;;
62997;SDS011;55949;52.590;7.330;2022-09-09T02:27:33;4.38;;;1.52;;
62997;SDS011;55949;52.590;7.330;2022-09-09T02:28:35;3.42;;;1.80;;
62997;SDS011;55949;52.590;7.330;2022-09-09T02:29:41;3.42;;;1.48;;
62997;SDS011;55949;52.590;7.330;2022-09-09T02:30:44;2.65;;;1.65;;
62997;SDS011;55949;52.590;7.330;2022-09-09T02:31:47;2.35;;;1.38;;
62997;SDS011;55949;52.590;7.330;2022-09-09T02:32:50;5.97;;;1.55;;
62997;SDS011;55949;52.590;7.330;2022-09-09T02:34:00;3.38;;;1.17;;
62997;SDS011;55949;52.590;7.330;2022-09-09T02:35:05;3.00;;;1.50;;
62997;SDS011;55949;52.590;7.330;2022-09-09T02:36:10;5.78;;;1.35;;
62997;SDS011;55949;52.590;7.330;2022-09-09T02:37:17;2.30;;;1.45;;
62997;SDS011;55949;52.590;7.330;2022-09-09T02:38:20;2.55;;;1.50;;
62997;SDS011;55949;52.590;7.330;2022-09-09T02:39:22;4.45;;;1.50;;
62997;SDS011;55949;52.590;7.330;2022-09-09T02:40:22;3.90;;;1.40;;
62997;SDS011;55949;52.590;7.330;2022-09-09T02:41:24;6.10;;;1.63;;
62997;SDS011;55949;52.590;7.330;2022-09-09T02:42:30;5.43;;;1.45;;
62997;SDS011;55949;52.590;7.330;2022-09-09T02:43:32;3.35;;;1.30;;
62997;SDS011;55949;52.590;7.330;2022-09-09T02:44:33;2.38;;;1.08;;
62997;SDS011;55949;52.590;7.330;2022-09-09T02:45:42;2.47;;;1.30;;
62997;SDS011;55949;52.590;7.330;2022-09-09T02:46:58;9.00;;;1.73;;
62997;SDS011;55949;52.590;7.330;2022-09-09T02:48:30;4.30;;;1.40;;
62997;SDS011;55949;52.590;7.330;2022-09-09T02:53:07;6.43;;;1.50;;
62997;SDS011;55949;52.590;7.330;2022-09-09T02:54:12;2.35;;;1.25;;
62997;SDS011;55949;52.590;7.330;2022-09-09T02:55:38;3.05;;;1.40;;
62997;SDS011;55949;52.590;7.330;2022-09-09T02:56:55;2.65;;;1.02;;
62997;SDS011;55949;52.590;7.330;2022-09-09T02:57:58;3.35;;;1.15;;
62997;SDS011;55949;52.590;7.330;2022-09-09T02:59:05;6.07;;;1.40;;
62997;SDS011;55949;52.590;7.330;2022-09-09T03:00:06;3.70;;;1.33;;
62997;SDS011;55949;52.590;7.330;2022-09-09T03:01:07;3.53;;;1.20;;
62997;SDS011;55949;52.590;7.330;2022-09-09T03:02:08;3.25;;;1.40;;
62997;SDS011;55949;52.590;7.330;2022-09-09T03:03:10;3.63;;;1.52;;
62997;SDS011;55949;52.590;7.330;2022-09-09T03:04:10;2.67;;;1.55;;
62997;SDS011;55949;52.590;7.330;2022-09-09T03:05:11;2.65;;;1.17;;
62997;SDS011;55949;52.590;7.330;2022-09-09T03:06:13;3.90;;;1.48;;
62997;SDS011;55949;52.590;7.330;2022-09-09T03:07:14;5.28;;;1.58;;
62997;SDS011;55949;52.590;7.330;2022-09-09T03:08:16;6.78;;;1.55;;
62997;SDS011;55949;52.590;7.330;2022-09-09T03:09:17;2.53;;;1.15;;
62997;SDS011;55949;52.590;7.330;2022-09-09T03:10:18;4.07;;;1.55;;
62997;SDS011;55949;52.590;7.330;2022-09-09T03:11:19;3.20;;;1.40;;
62997;SDS011;55949;52.590;7.330;2022-09-09T03:12:19;2.75;;;1.48;;
62997;SDS011;55949;52.590;7.330;2022-09-09T03:13:20;4.18;;;1.40;;
62997;SDS011;55949;52.590;7.330;2022-09-09T03:14:21;2.15;;;1.20;;
62997;SDS011;55949;52.590;7.330;2022-09-09T03:15:25;4.40;;;1.35;;
62997;SDS011;55949;52.590;7.330;2022-09-09T03:16:29;4.28;;;1.20;;
62997;SDS011;55949;52.590;7.330;2022-09-09T03:17:30;2.00;;;1.10;;
62997;SDS011;55949;52.590;7.330;2022-09-09T03:18:30;3.40;;;1.20;;
62997;SDS011;55949;52.590;7.330;2022-09-09T03:19:32;2.85;;;1.30;;
62997;SDS011;55949;52.590;7.330;2022-09-09T03:20:32;4.40;;;1.52;;
62997;SDS011;55949;52.590;7.330;2022-09-09T03:21:33;3.70;;;1.17;;
62997;SDS011;55949;52.590;7.330;2022-09-09T03:22:34;7.32;;;2.00;;
62997;SDS011;55949;52.590;7.330;2022-09-09T03:23:35;3.42;;;1.45;;
62997;SDS011;55949;52.590;7.330;2022-09-09T03:24:36;2.33;;;1.50;;
62997;SDS011;55949;52.590;7.330;2022-09-09T03:25:36;2.78;;;1.42;;
62997;SDS011;55949;52.590;7.330;2022-09-09T03:26:37;3.60;;;1.60;;
62997;SDS011;55949;52.590;7.330;2022-09-09T03:27:38;1.27;;;1.10;;
62997;SDS011;55949;52.590;7.330;2022-09-09T03:28:39;4.10;;;1.75;;
62997;SDS011;55949;52.590;7.330;2022-09-09T03:29:39;3.60;;;1.38;;
62997;SDS011;55949;52.590;7.330;2022-09-09T03:30:40;3.53;;;1.30;;
62997;SDS011;55949;52.590;7.330;2022-09-09T03:31:41;2.53;;;1.40;;
62997;SDS011;55949;52.590;7.330;2022-09-09T03:32:42;2.97;;;1.75;;
62997;SDS011;55949;52.590;7.330;2022-09-09T03:33:44;2.95;;;1.50;;
62997;SDS011;55949;52.590;7.330;2022-09-09T03:34:45;4.22;;;2.00;;
62997;SDS011;55949;52.590;7.330;2022-09-09T03:35:49;4.18;;;1.60;;
62997;SDS011;55949;52.590;7.330;2022-09-09T03:36:50;3.92;;;1.83;;
62997;SDS011;55949;52.590;7.330;2022-09-09T03:37:51;2.45;;;1.70;;
62997;SDS011;55949;52.590;7.330;2022-09-09T03:38:52;3.95;;;1.88;;
62997;SDS011;55949;52.590;7.330;2022-09-09T03:39:54;3.10;;;1.60;;
62997;SDS011;55949;52.590;7.330;2022-09-09T03:40:56;4.15;;;2.13;;
62997;SDS011;55949;52.590;7.330;2022-09-09T03:42:00;4.60;;;1.80;;
62997;SDS011;55949;52.590;7.330;2022-09-09T03:43:03;3.63;;;1.63;;
62997;SDS011;55949;52.590;7.330;2022-09-09T03:44:04;3.35;;;1.45;;
62997;SDS011;55949;52.590;7.330;2022-09-09T03:45:06;2.72;;;1.67;;
62997;SDS011;55949;52.590;7.330;2022-09-09T03:46:09;2.13;;;1.48;;
62997;SDS011;55949;52.590;7.330;2022-09-09T03:47:09;2.67;;;1.30;;
62997;SDS011;55949;52.590;7.330;2022-09-09T03:48:10;3.25;;;1.60;;
62997;SDS011;55949;52.590;7.330;2022-09-09T03:49:11;4.45;;;1.63;;
62997;SDS011;55949;52.590;7.330;2022-09-09T03:50:12;5.60;;;1.83;;
62997;SDS011;55949;52.590;7.330;2022-09-09T03:51:13;2.85;;;1.88;;
62997;SDS011;55949;52.590;7.330;2022-09-09T03:52:15;5.43;;;2.20;;
62997;SDS011;55949;52.590;7.330;2022-09-09T03:53:17;4.45;;;1.80;;
62997;SDS011;55949;52.590;7.330;2022-09-09T03:54:19;5.07;;;2.22;;
62997;SDS011;55949;52.590;7.330;2022-09-09T03:55:20;2.95;;;1.77;;
62997;SDS011;55949;52.590;7.330;2022-09-09T03:56:20;3.10;;;1.73;;
62997;SDS011;55949;52.590;7.330;2022-09-09T03:57:21;3.17;;;1.80;;
62997;SDS011;55949;52.590;7.330;2022-09-09T03:58:22;3.70;;;2.22;;
62997;SDS011;55949;52.590;7.330;2022-09-09T03:59:26;5.07;;;2.25;;
62997;SDS011;55949;52.590;7.330;2022-09-09T04:00:27;6.90;;;1.92;;
62997;SDS011;55949;52.590;7.330;2022-09-09T04:01:29;3.00;;;1.90;;
62997;SDS011;55949;52.590;7.330;2022-09-09T04:02:30;4.35;;;2.25;;
62997;SDS011;55949;52.590;7.330;2022-09-09T04:03:31;4.22;;;2.08;;
62997;SDS011;55949;52.590;7.330;2022-09-09T04:04:32;3.53;;;2.17;;
62997;SDS011;55949;52.590;7.330;2022-09-09T04:05:32;4.63;;;2.17;;
62997;SDS011;55949;52.590;7.330;2022-09-09T04:06:34;3.72;;;2.25;;
62997;SDS011;55949;52.590;7.330;2022-09-09T04:07:35;5.32;;;2.40;;
62997;SDS011;55949;52.590;7.330;2022-09-09T04:08:36;3.53;;;2.33;;
62997;SDS011;55949;52.590;7.330;2022-09-09T04:09:38;3.13;;;1.80;;
62997;SDS011;55949;52.590;7.330;2022-09-09T04:10:39;6.53;;;2.60;;
62997;SDS011;55949;52.590;7.330;2022-09-09T04:11:40;4.07;;;2.47;;
62997;SDS011;55949;52.590;7.330;2022-09-09T04:12:40;4.57;;;2.38;;
62997;SDS011;55949;52.590;7.330;2022-09-09T04:13:41;4.53;;;2.33;;
62997;SDS011;55949;52.590;7.330;2022-09-09T04:14:42;4.18;;;2.45;;
62997;SDS011;55949;52.590;7.330;2022-09-09T04:15:43;5.50;;;2.35;;
62997;SDS011;55949;52.590;7.330;2022-09-09T04:16:49;3.92;;;2.10;;
62997;SDS011;55949;52.590;7.330;2022-09-09T04:17:50;4.22;;;2.42;;
62997;SDS011;55949;52.590;7.330;2022-09-09T04:18:51;3.80;;;2.40;;
62997;SDS011;55949;52.590;7.330;2022-09-09T04:19:53;3.20;;;1.90;;
62997;SDS011;55949;52.590;7.330;2022-09-09T04:20:53;3.58;;;1.83;;
62997;SDS011;55949;52.590;7.330;2022-09-09T04:21:57;3.13;;;1.95;;
62997;SDS011;55949;52.590;7.330;2022-09-09T04:22:57;2.70;;;1.88;;
62997;SDS011;55949;52.590;7.330;2022-09-09T04:23:58;2.67;;;1.88;;
62997;SDS011;55949;52.590;7.330;2022-09-09T04:24:59;3.78;;;2.20;;
62997;SDS011;55949;52.590;7.330;2022-09-09T04:26:01;4.28;;;2.17;;
62997;SDS011;55949;52.590;7.330;2022-09-09T04:27:02;4.43;;;2.20;;
62997;SDS011;55949;52.590;7.330;2022-09-09T04:28:03;3.53;;;2.10;;
62997;SDS011;55949;52.590;7.330;2022-09-09T04:29:04;5.40;;;2.17;;
62997;SDS011;55949;52.590;7.330;2022-09-09T04:30:07;3.08;;;2.20;;
62997;SDS011;55949;52.590;7.330;2022-09-09T04:31:19;3.40;;;2.10;;
62997;SDS011;55949;52.590;7.330;2022-09-09T04:32:22;3.75;;;2.20;;
62997;SDS011;55949;52.590;7.330;2022-09-09T04:33:24;2.80;;;1.80;;
62997;SDS011;55949;52.590;7.330;2022-09-09T04:34:28;5.25;;;2.25;;
62997;SDS011;55949;52.590;7.330;2022-09-09T04:35:29;5.45;;;2.20;;
62997;SDS011;55949;52.590;7.330;2022-09-09T04:36:31;4.32;;;2.25;;
62997;SDS011;55949;52.590;7.330;2022-09-09T04:37:33;3.58;;;2.05;;
62997;SDS011;55949;52.590;7.330;2022-09-09T04:38:33;4.30;;;2.33;;
62997;SDS011;55949;52.590;7.330;2022-09-09T04:39:34;3.75;;;2.13;;
62997;SDS011;55949;52.590;7.330;2022-09-09T04:40:35;3.75;;;2.40;;
62997;SDS011;55949;52.590;7.330;2022-09-09T04:41:36;6.20;;;2.70;;
62997;SDS011;55949;52.590;7.330;2022-09-09T04:42:37;8.73;;;2.47;;
62997;SDS011;55949;52.590;7.330;2022-09-09T04:43:39;4.47;;;2.67;;
62997;SDS011;55949;52.590;7.330;2022-09-09T04:44:40;5.15;;;2.97;;
62997;SDS011;55949;52.590;7.330;2022-09-09T04:45:41;3.38;;;2.45;;
62997;SDS011;55949;52.590;7.330;2022-09-09T04:46:43;3.75;;;2.33;;
62997;SDS011;55949;52.590;7.330;2022-09-09T04:47:43;4.32;;;2.05;;
62997;SDS011;55949;52.590;7.330;2022-09-09T04:48:44;4.47;;;2.35;;
62997;SDS011;55949;52.590;7.330;2022-09-09T04:49:45;4.00;;;2.70;;
62997;SDS011;55949;52.590;7.330;2022-09-09T04:50:56;6.95;;;2.58;;
62997;SDS011;55949;52.590;7.330;2022-09-09T04:51:56;4.55;;;2.60;;
62997;SDS011;55949;52.590;7.330;2022-09-09T04:53:01;3.63;;;2.63;;
62997;SDS011;55949;52.590;7.330;2022-09-09T04:54:02;6.07;;;2.60;;
62997;SDS011;55949;52.590;7.330;2022-09-09T04:55:03;6.90;;;2.60;;
62997;SDS011;55949;52.590;7.330;2022-09-09T04:56:05;4.28;;;2.47;;
62997;SDS011;55949;52.590;7.330;2022-09-09T04:57:09;3.83;;;2.55;;
62997;SDS011;55949;52.590;7.330;2022-09-09T04:58:10;4.93;;;2.63;;
62997;SDS011;55949;52.590;7.330;2022-09-09T04:59:11;5.10;;;2.58;;
62997;SDS011;55949;52.590;7.330;2022-09-09T05:00:12;4.93;;;3.00;;
62997;SDS011;55949;52.590;7.330;2022-09-09T05:01:18;6.22;;;2.85;;
62997;SDS011;55949;52.590;7.330;2022-09-09T05:02:21;5.13;;;3.20;;
62997;SDS011;55949;52.590;7.330;2022-09-09T05:03:21;5.57;;;2.95;;
62997;SDS011;55949;52.590;7.330;2022-09-09T05:04:22;5.75;;;3.30;;
62997;SDS011;55949;52.590;7.330;2022-09-09T05:05:23;3.33;;;2.60;;
62997;SDS011;55949;52.590;7.330;2022-09-09T05:06:25;5.35;;;2.58;;
62997;SDS011;55949;52.590;7.330;2022-09-09T05:07:26;7.07;;;3.22;;
62997;SDS011;55949;52.590;7.330;2022-09-09T05:08:27;3.80;;;2.70;;
62997;SDS011;55949;52.590;7.330;2022-09-09T05:09:28;3.53;;;2.50;;
62997;SDS011;55949;52.590;7.330;2022-09-09T05:10:29;4.50;;;3.05;;
62997;SDS011;55949;52.590;7.330;2022-09-09T05:11:31;6.47;;;3.50;;
62997;SDS011;55949;52.590;7.330;2022-09-09T05:12:32;4.95;;;3.47;;
62997;SDS011;55949;52.590;7.330;2022-09-09T05:13:33;5.93;;;3.13;;
62997;SDS011;55949;52.590;7.330;2022-09-09T05:14:34;5.15;;;3.83;;
62997;SDS011;55949;52.590;7.330;2022-09-09T05:15:37;5.82;;;3.33;;
62997;SDS011;55949;52.590;7.330;2022-09-09T05:16:37;5.53;;;3.25;;
62997;SDS011;55949;52.590;7.330;2022-09-09T05:17:39;6.00;;;3.42;;
62997;SDS011;55949;52.590;7.330;2022-09-09T05:18:40;6.95;;;3.80;;
62997;SDS011;55949;52.590;7.330;2022-09-09T05:19:44;5.93;;;3.65;;
62997;SDS011;55949;52.590;7.330;2022-09-09T05:20:45;7.32;;;3.83;;
62997;SDS011;55949;52.590;7.330;2022-09-09T05:21:46;6.70;;;4.00;;
62997;SDS011;55949;52.590;7.330;2022-09-09T05:22:47;5.72;;;3.75;;
62997;SDS011;55949;52.590;7.330;2022-09-09T05:23:48;5.82;;;4.03;;
62997;SDS011;55949;52.590;7.330;2022-09-09T05:24:52;5.20;;;3.92;;
62997;SDS011;55949;52.590;7.330;2022-09-09T05:25:59;6.75;;;3.67;;
62997;SDS011;55949;52.590;7.330;2022-09-09T05:27:00;7.30;;;4.05;;
62997;SDS011;55949;52.590;7.330;2022-09-09T05:28:02;7.38;;;4.03;;
62997;SDS011;55949;52.590;7.330;2022-09-09T05:29:03;7.28;;;4.05;;
62997;SDS011;55949;52.590;7.330;2022-09-09T05:30:04;5.90;;;4.20;;
62997;SDS011;55949;52.590;7.330;2022-09-09T05:31:05;6.80;;;4.05;;
62997;SDS011;55949;52.590;7.330;2022-09-09T05:32:08;5.70;;;4.05;;
62997;SDS011;55949;52.590;7.330;2022-09-09T05:33:09;6.57;;;4.75;;
62997;SDS011;55949;52.590;7.330;2022-09-09T05:34:10;5.38;;;3.97;;
62997;SDS011;55949;52.590;7.330;2022-09-09T05:35:11;9.40;;;4.50;;
62997;SDS011;55949;52.590;7.330;2022-09-09T05:36:14;7.03;;;4.30;;
62997;SDS011;55949;52.590;7.330;2022-09-09T05:37:17;9.40;;;4.45;;
62997;SDS011;55949;52.590;7.330;2022-09-09T05:38:18;8.98;;;4.90;;
62997;SDS011;55949;52.590;7.330;2022-09-09T05:39:19;6.45;;;4.60;;
62997;SDS011;55949;52.590;7.330;2022-09-09T05:40:20;6.60;;;4.32;;
62997;SDS011;55949;52.590;7.330;2022-09-09T05:41:21;5.85;;;4.72;;
62997;SDS011;55949;52.590;7.330;2022-09-09T05:42:23;9.18;;;5.03;;
62997;SDS011;55949;52.590;7.330;2022-09-09T05:43:24;8.95;;;4.97;;
62997;SDS011;55949;52.590;7.330;2022-09-09T05:44:25;7.00;;;5.10;;
62997;SDS011;55949;52.590;7.330;2022-09-09T05:45:27;6.65;;;4.68;;
62997;SDS011;55949;52.590;7.330;2022-09-09T05:46:28;7.43;;;4.75;;
62997;SDS011;55949;52.590;7.330;2022-09-09T05:47:30;7.30;;;4.95;;
62997;SDS011;55949;52.590;7.330;2022-09-09T05:48:31;6.90;;;5.28;;
62997;SDS011;55949;52.590;7.330;2022-09-09T05:49:33;6.65;;;5.15;;
62997;SDS011;55949;52.590;7.330;2022-09-09T05:50:33;6.88;;;4.20;;
62997;SDS011;55949;52.590;7.330;2022-09-09T05:51:34;7.97;;;5.43;;
62997;SDS011;55949;52.590;7.330;2022-09-09T05:52:35;8.68;;;5.65;;
62997;SDS011;55949;52.590;7.330;2022-09-09T05:53:36;8.35;;;5.38;;
62997;SDS011;55949;52.590;7.330;2022-09-09T05:54:37;7.68;;;5.30;;
62997;SDS011;55949;52.590;7.330;2022-09-09T05:55:38;8.05;;;5.88;;
62997;SDS011;55949;52.590;7.330;2022-09-09T05:56:38;11.27;;;5.68;;
62997;SDS011;55949;52.590;7.330;2022-09-09T05:57:39;10.88;;;6.07;;
62997;SDS011;55949;52.590;7.330;2022-09-09T05:58:40;8.57;;;6.10;;
62997;SDS011;55949;52.590;7.330;2022-09-09T05:59:44;9.27;;;5.63;;
62997;SDS011;55949;52.590;7.330;2022-09-09T06:00:45;11.15;;;6.35;;
62997;SDS011;55949;52.590;7.330;2022-09-09T06:01:46;7.90;;;5.55;;
62997;SDS011;55949;52.590;7.330;2022-09-09T06:02:51;8.35;;;5.88;;
62997;SDS011;55949;52.590;7.330;2022-09-09T06:03:52;7.20;;;5.25;;
62997;SDS011;55949;52.590;7.330;2022-09-09T06:04:53;9.15;;;5.60;;
62997;SDS011;55949;52.590;7.330;2022-09-09T06:06:02;9.25;;;5.88;;
62997;SDS011;55949;52.590;7.330;2022-09-09T06:07:07;8.43;;;5.45;;
62997;SDS011;55949;52.590;7.330;2022-09-09T06:08:07;8.15;;;5.40;;
62997;SDS011;55949;52.590;7.330;2022-09-09T06:09:08;9.10;;;6.05;;
62997;SDS011;55949;52.590;7.330;2022-09-09T06:10:10;12.55;;;5.90;;
62997;SDS011;55949;52.590;7.330;2022-09-09T06:11:14;7.90;;;5.90;;
62997;SDS011;55949;52.590;7.330;2022-09-09T06:12:17;11.15;;;6.30;;
62997;SDS011;55949;52.590;7.330;2022-09-09T06:13:18;8.68;;;5.68;;
62997;SDS011;55949;52.590;7.330;2022-09-09T06:14:20;8.65;;;5.22;;
62997;SDS011;55949;52.590;7.330;2022-09-09T06:15:21;11.10;;;5.72;;
62997;SDS011;55949;52.590;7.330;2022-09-09T06:16:23;7.35;;;5.32;;
62997;SDS011;55949;52.590;7.330;2022-09-09T06:17:25;7.40;;;5.97;;
62997;SDS011;55949;52.590;7.330;2022-09-09T06:18:27;7.25;;;5.95;;
62997;SDS011;55949;52.590;7.330;2022-09-09T06:19:29;8.43;;;5.80;;
62997;SDS011;55949;52.590;7.330;2022-09-09T06:20:30;8.93;;;5.63;;
62997;SDS011;55949;52.590;7.330;2022-09-09T06:21:35;8.57;;;5.75;;
62997;SDS011;55949;52.590;7.330;2022-09-09T06:22:40;10.40;;;6.18;;
62997;SDS011;55949;52.590;7.330;2022-09-09T06:23:41;9.68;;;6.55;;
62997;SDS011;55949;52.590;7.330;2022-09-09T06:24:44;8.75;;;5.93;;
62997;SDS011;55949;52.590;7.330;2022-09-09T06:25:44;9.45;;;5.82;;
62997;SDS011;55949;52.590;7.330;2022-09-09T06:26:45;7.13;;;5.70;;
62997;SDS011;55949;52.590;7.330;2022-09-09T06:27:48;7.93;;;5.38;;
62997;SDS011;55949;52.590;7.330;2022-09-09T06:28:50;10.30;;;5.65;;
62997;SDS011;55949;52.590;7.330;2022-09-09T06:29:52;8.60;;;5.38;;
62997;SDS011;55949;52.590;7.330;2022-09-09T06:31:02;8.02;;;5.40;;
62997;SDS011;55949;52.590;7.330;2022-09-09T06:32:05;8.73;;;4.95;;
62997;SDS011;55949;52.590;7.330;2022-09-09T06:33:08;8.32;;;5.65;;
62997;SDS011;55949;52.590;7.330;2022-09-09T06:34:09;9.50;;;5.40;;
62997;SDS011;55949;52.590;7.330;2022-09-09T06:35:10;9.18;;;5.82;;
62997;SDS011;55949;52.590;7.330;2022-09-09T06:36:12;11.52;;;5.65;;
62997;SDS011;55949;52.590;7.330;2022-09-09T06:37:14;9.13;;;5.45;;
62997;SDS011;55949;52.590;7.330;2022-09-09T06:38:15;9.40;;;5.70;;
62997;SDS011;55949;52.590;7.330;2022-09-09T06:39:16;8.82;;;5.45;;
62997;SDS011;55949;52.590;7.330;2022-09-09T06:40:16;7.38;;;5.40;;
62997;SDS011;55949;52.590;7.330;2022-09-09T06:41:18;7.85;;;5.80;;
62997;SDS011;55949;52.590;7.330;2022-09-09T06:42:20;8.45;;;5.32;;
62997;SDS011;55949;52.590;7.330;2022-09-09T06:43:21;9.07;;;5.97;;
62997;SDS011;55949;52.590;7.330;2022-09-09T06:44:23;8.50;;;5.57;;
62997;SDS011;55949;52.590;7.330;2022-09-09T06:45:24;8.13;;;5.80;;
62997;SDS011;55949;52.590;7.330;2022-09-09T06:46:29;7.65;;;5.25;;
62997;SDS011;55949;52.590;7.330;2022-09-09T06:47:32;6.53;;;5.10;;
62997;SDS011;55949;52.590;7.330;2022-09-09T06:48:33;7.97;;;5.50;;
62997;SDS011;55949;52.590;7.330;2022-09-09T06:49:34;8.80;;;5.32;;
62997;SDS011;55949;52.590;7.330;2022-09-09T06:50:35;9.55;;;5.50;;
62997;SDS011;55949;52.590;7.330;2022-09-09T06:51:36;9.95;;;5.07;;
62997;SDS011;55949;52.590;7.330;2022-09-09T06:52:42;10.25;;;5.43;;
62997;SDS011;55949;52.590;7.330;2022-09-09T06:53:49;8.75;;;5.13;;
62997;SDS011;55949;52.590;7.330;2022-09-09T06:54:52;11.23;;;5.50;;
62997;SDS011;55949;52.590;7.330;2022-09-09T06:55:53;8.57;;;5.25;;
62997;SDS011;55949;52.590;7.330;2022-09-09T06:56:54;8.43;;;4.97;;
62997;SDS011;55949;52.590;7.330;2022-09-09T06:57:55;8.13;;;5.10;;
62997;SDS011;55949;52.590;7.330;2022-09-09T06:58:57;8.32;;;4.95;;
62997;SDS011;55949;52.590;7.330;2022-09-09T07:00:03;6.35;;;4.40;;
62997;SDS011;55949;52.590;7.330;2022-09-09T07:01:05;11.52;;;4.38;;
62997;SDS011;55949;52.590;7.330;2022-09-09T07:02:07;7.63;;;4.13;;
62997;SDS011;55949;52.590;7.330;2022-09-09T07:03:09;10.20;;;4.45;;
62997;SDS011;55949;52.590;7.330;2022-09-09T07:04:10;9.88;;;4.70;;